createdAt,value
2019-04-20T00:00:05.859Z,99.90
2019-04-20T00:02:29.532Z,99.90
2019-04-20T00:04:51.404Z,99.90
2019-04-20T00:07:12.305Z,99.90
2019-04-20T00:09:36.983Z,99.90
2019-04-20T00:12:03.817Z,99.90
2019-04-20T00:14:22.471Z,99.90
2019-04-20T00:16:39.926Z,99.90
2019-04-20T00:19:03.605Z,99.90
2019-04-20T00:21:42.652Z,99.90
2019-04-20T00:24:01.041Z,99.90
2019-04-20T00:26:52.152Z,99.90
2019-04-20T00:29:00.189Z,99.90
2019-04-20T00:31:23.537Z,99.90
2019-04-20T00:33:44.895Z,99.90
2019-04-20T00:35:52.936Z,99.90
2019-04-20T00:38:13.965Z,99.90
2019-04-20T00:40:35.566Z,99.90
2019-04-20T00:42:59.566Z,99.90
2019-04-20T00:45:25.778Z,99.90
2019-04-20T00:47:47.824Z,99.90
2019-04-20T00:50:19.566Z,99.90
2019-04-20T00:52:43.766Z,99.90
2019-04-20T00:54:47.370Z,99.90
2019-04-20T00:57:17.674Z,99.90
2019-04-20T00:59:51.420Z,99.90
2019-04-20T01:02:09.069Z,99.90
2019-04-20T01:04:38.784Z,99.90
2019-04-20T01:06:53.963Z,99.90
2019-04-20T01:09:07.622Z,99.90
2019-04-20T01:11:35.468Z,99.90
2019-04-20T01:13:57.391Z,99.90
2019-04-20T01:16:26.793Z,99.90
2019-04-20T01:18:35.710Z,99.90
2019-04-20T01:21:03.881Z,99.90
2019-04-20T01:23:21.292Z,99.90
2019-04-20T01:25:43.754Z,99.90
2019-04-20T01:28:18.312Z,99.90
2019-04-20T01:30:32.214Z,99.90
2019-04-20T01:33:01.680Z,99.90
2019-04-20T01:35:27.116Z,99.90
2019-04-20T01:37:46.985Z,99.90
2019-04-20T01:39:56.797Z,99.90
2019-04-20T01:42:15.137Z,99.90
2019-04-20T01:44:40.198Z,99.90
2019-04-20T01:47:01.513Z,99.90
2019-04-20T01:49:22.786Z,99.90
2019-04-20T01:51:52.466Z,99.90
2019-04-20T01:54:21.349Z,99.90
2019-04-20T01:56:43.659Z,99.90
2019-04-20T01:59:21.423Z,99.90
2019-04-20T02:01:55.671Z,99.90
2019-04-20T02:04:20.492Z,99.90
2019-04-20T02:06:46.602Z,99.90
2019-04-20T02:09:09.501Z,99.90
2019-04-20T02:11:31.364Z,99.90
2019-04-20T02:13:51.657Z,99.90
2019-04-20T02:16:17.992Z,99.90
2019-04-20T02:18:42.066Z,99.90
2019-04-20T02:21:13.590Z,99.90
2019-04-20T02:23:28.382Z,99.90
2019-04-20T02:25:37.682Z,99.90
2019-04-20T02:28:20.411Z,99.90
2019-04-20T02:30:55.740Z,99.90
2019-04-20T02:33:29.570Z,99.90
2019-04-20T02:36:04.210Z,99.90
2019-04-20T02:38:21.750Z,99.90
2019-04-20T02:41:03.349Z,99.90
2019-04-20T02:43:09.442Z,99.90
2019-04-20T02:45:34.838Z,99.90
2019-04-20T02:47:53.481Z,99.90
2019-04-20T02:50:15.747Z,99.90
2019-04-20T02:55:02.175Z,99.90
2019-04-20T02:57:17.807Z,99.90
2019-04-20T03:01:51.788Z,99.90
2019-04-20T03:03:57.642Z,99.90
2019-04-20T03:06:23.321Z,99.90
2019-04-20T03:09:00.757Z,99.90
2019-04-20T03:11:21.223Z,99.90
2019-04-20T03:13:44.094Z,99.90
2019-04-20T03:16:00.144Z,99.90
2019-04-20T03:18:25.300Z,99.90
2019-04-20T03:20:46.614Z,99.90
2019-04-20T03:25:48.381Z,99.90
2019-04-20T03:28:11.798Z,99.90
2019-04-20T03:33:21.126Z,99.90
2019-04-20T03:35:23.937Z,99.90
2019-04-20T03:38:03.608Z,99.90
2019-04-20T03:40:01.494Z,99.90
2019-04-20T03:42:10.773Z,99.90
2019-04-20T03:44:34.010Z,99.90
2019-04-20T03:46:58.025Z,99.90
2019-04-20T03:49:42.312Z,99.90
2019-04-20T03:51:58.553Z,99.90
2019-04-20T03:54:20.194Z,99.90
2019-04-20T03:57:13.928Z,99.90
2019-04-20T03:59:51.164Z,99.90
2019-04-20T04:04:38.252Z,99.90
2019-04-20T04:06:47.928Z,99.90
2019-04-20T04:09:18.851Z,99.90
2019-04-20T04:11:45.360Z,99.90
2019-04-20T04:13:50.863Z,99.90
2019-04-20T04:16:14.776Z,99.90
2019-04-20T04:18:40.312Z,99.90
2019-04-20T04:21:01.918Z,99.90
2019-04-20T04:23:35.648Z,99.90
2019-04-20T04:26:00.717Z,99.90
2019-04-20T04:28:23.846Z,99.90
2019-04-20T04:30:39.288Z,99.90
2019-04-20T04:33:35.390Z,99.90
2019-04-20T04:35:20.121Z,99.90
2019-04-20T04:37:45.883Z,99.90
2019-04-20T04:40:23.661Z,99.90
2019-04-20T04:42:39.152Z,99.90
2019-04-20T04:44:46.446Z,99.90
2019-04-20T04:47:04.393Z,99.90
2019-04-20T04:49:28.403Z,99.90
2019-04-20T04:51:53.517Z,99.90
2019-04-20T04:54:16.567Z,99.90
2019-04-20T04:56:28.558Z,99.90
2019-04-20T04:58:49.597Z,99.90
2019-04-20T05:01:16.741Z,99.90
2019-04-20T05:03:58.254Z,99.90
2019-04-20T05:06:13.402Z,99.90
2019-04-20T05:08:27.343Z,99.90
2019-04-20T05:10:41.637Z,99.90
2019-04-20T05:13:02.966Z,99.90
2019-04-20T05:15:37.669Z,99.90
2019-04-20T05:18:07.317Z,99.90
2019-04-20T05:20:29.264Z,99.90
2019-04-20T05:22:57.707Z,99.90
2019-04-20T05:25:36.696Z,99.90
2019-04-20T05:28:00.714Z,99.90
2019-04-20T05:30:07.975Z,99.90
2019-04-20T05:32:39.687Z,99.90
2019-04-20T05:35:14.690Z,99.90
2019-04-20T05:37:53.303Z,99.90
2019-04-20T05:39:58.981Z,99.90
2019-04-20T05:42:19.156Z,99.90
2019-04-20T05:44:43.964Z,99.90
2019-04-20T05:47:00.997Z,99.90
2019-04-20T05:49:27.075Z,99.90
2019-04-20T05:51:43.206Z,99.90
2019-04-20T05:54:13.812Z,99.90
2019-04-20T05:56:35.904Z,99.90
2019-04-20T05:58:56.619Z,99.80
2019-04-20T06:01:20.492Z,99.50
2019-04-20T06:03:37.171Z,99.00
2019-04-20T06:06:11.839Z,98.80
2019-04-20T06:08:35.483Z,98.70
2019-04-20T06:10:49.419Z,98.00
2019-04-20T06:13:14.076Z,97.60
2019-04-20T06:15:46.690Z,97.60
2019-04-20T06:18:17.709Z,96.90
2019-04-20T06:20:47.591Z,96.60
2019-04-20T06:23:28.529Z,97.10
2019-04-20T06:26:13.461Z,96.00
2019-04-20T06:28:17.293Z,95.40
2019-04-20T06:30:39.115Z,91.50
2019-04-20T06:34:01.513Z,78.90
2019-04-20T06:36:29.397Z,69.40
2019-04-20T06:38:53.916Z,59.10
2019-04-20T06:41:10.468Z,55.30
2019-04-20T06:43:11.507Z,53.30
2019-04-20T06:45:48.905Z,51.40
2019-04-20T06:47:57.826Z,49.50
2019-04-20T06:50:18.593Z,49.30
2019-04-20T06:53:01.569Z,46.30
2019-04-20T06:55:19.852Z,45.50
2019-04-20T06:58:00.749Z,45.70
2019-04-20T07:00:18.172Z,44.90
2019-04-20T07:02:36.670Z,44.20
2019-04-20T07:04:55.563Z,43.80
2019-04-20T07:07:18.402Z,43.60
2019-04-20T07:09:57.145Z,41.90
2019-04-20T07:12:02.961Z,41.90
2019-04-20T07:14:11.330Z,40.30
2019-04-20T07:16:49.668Z,39.30
2019-04-20T07:19:19.054Z,37.40
2019-04-20T07:22:15.238Z,37.30
2019-04-20T07:24:25.293Z,37.20
2019-04-20T07:26:44.592Z,37.10
2019-04-20T07:29:06.843Z,36.40
2019-04-20T07:31:27.979Z,37.60
2019-04-20T07:33:49.454Z,36.50
2019-04-20T07:36:15.019Z,35.90
2019-04-20T07:38:41.802Z,35.20
2019-04-20T07:40:50.345Z,34.80
2019-04-20T07:43:14.691Z,33.20
2019-04-20T07:45:40.215Z,35.00
2019-04-20T07:48:13.555Z,34.00
2019-04-20T07:50:21.850Z,34.80
2019-04-20T07:52:46.209Z,33.60
2019-04-20T07:55:33.334Z,33.70
2019-04-20T07:57:35.331Z,32.80
2019-04-20T08:00:06.353Z,31.90
2019-04-20T08:02:42.589Z,32.20
2019-04-20T08:05:04.357Z,33.20
2019-04-20T08:07:14.604Z,33.50
2019-04-20T08:09:44.179Z,32.80
2019-04-20T08:12:29.412Z,33.20
2019-04-20T08:14:52.167Z,32.70
2019-04-20T08:17:14.102Z,31.40
2019-04-20T08:19:33.500Z,31.00
2019-04-20T08:21:52.513Z,28.90
2019-04-20T08:24:07.361Z,31.70
2019-04-20T08:26:20.273Z,29.90
2019-04-20T08:28:49.615Z,29.40
2019-04-20T08:31:18.112Z,28.30
2019-04-20T08:34:07.417Z,27.50
2019-04-20T08:36:23.333Z,27.40
2019-04-20T08:39:06.200Z,27.30
2019-04-20T08:41:03.297Z,27.30
2019-04-20T08:43:43.713Z,28.70
2019-04-20T08:45:57.115Z,27.80
2019-04-20T08:48:19.182Z,27.00
2019-04-20T08:50:35.905Z,27.60
2019-04-20T08:53:08.946Z,28.70
2019-04-20T08:55:14.796Z,30.60
2019-04-20T08:57:22.565Z,30.40
2019-04-20T08:59:46.931Z,29.50
2019-04-20T09:02:11.518Z,28.40
2019-04-20T09:04:38.596Z,28.70
2019-04-20T09:07:02.406Z,28.60
2019-04-20T09:09:44.239Z,28.70
2019-04-20T09:11:59.294Z,27.50
2019-04-20T09:14:00.803Z,27.60
2019-04-20T09:16:26.885Z,28.00
2019-04-20T09:18:51.429Z,28.10
2019-04-20T09:21:14.689Z,28.80
2019-04-20T09:23:49.656Z,28.40
2019-04-20T09:26:10.110Z,27.80
2019-04-20T09:28:27.192Z,27.80
2019-04-20T09:30:51.683Z,28.10
2019-04-20T09:33:29.965Z,27.00
2019-04-20T09:35:48.582Z,27.60
2019-04-20T09:38:17.671Z,27.30
2019-04-20T09:40:42.487Z,28.00
2019-04-20T09:42:47.802Z,28.00
2019-04-20T09:45:19.858Z,27.40
2019-04-20T09:47:36.837Z,27.50
2019-04-20T09:50:03.344Z,26.90
2019-04-20T09:52:28.992Z,27.00
2019-04-20T09:54:55.433Z,27.60
2019-04-20T09:57:20.504Z,27.80
2019-04-20T09:59:45.116Z,28.50
2019-04-20T10:01:55.542Z,27.50
2019-04-20T10:04:08.511Z,27.50
2019-04-20T10:06:33.651Z,27.50
2019-04-20T10:08:55.930Z,27.80
2019-04-20T10:11:13.815Z,27.80
2019-04-20T10:13:34.615Z,28.20
2019-04-20T10:15:55.536Z,28.60
2019-04-20T10:18:17.499Z,27.90
2019-04-20T10:20:40.582Z,27.50
2019-04-20T10:23:00.837Z,28.40
2019-04-20T10:25:22.485Z,26.60
2019-04-20T10:27:43.709Z,28.40
2019-04-20T10:30:06.005Z,28.30
2019-04-20T10:32:35.132Z,29.50
2019-04-20T10:34:48.922Z,28.40
2019-04-20T10:37:11.485Z,28.20
2019-04-20T10:39:34.259Z,29.20
2019-04-20T10:41:58.963Z,28.30
2019-04-20T10:44:18.636Z,28.40
2019-04-20T10:46:39.058Z,28.10
2019-04-20T10:49:02.644Z,27.50
2019-04-20T10:51:23.911Z,27.40
2019-04-20T10:53:44.505Z,27.20
2019-04-20T10:56:05.321Z,26.50
2019-04-20T10:58:25.434Z,27.80
2019-04-20T11:00:46.608Z,26.90
2019-04-20T11:03:08.096Z,27.90
2019-04-20T11:05:30.669Z,28.30
2019-04-20T11:07:54.599Z,28.60
2019-04-20T11:10:22.795Z,28.10
2019-04-20T11:12:38.149Z,27.00
2019-04-20T11:14:58.713Z,27.30
2019-04-20T11:17:20.352Z,26.70
2019-04-20T11:19:41.164Z,27.70
2019-04-20T11:22:04.121Z,27.30
2019-04-20T11:24:25.943Z,28.00
2019-04-20T11:26:48.182Z,27.30
2019-04-20T11:29:08.520Z,27.90
2019-04-20T11:31:37.412Z,27.20
2019-04-20T11:33:52.236Z,26.00
2019-04-20T11:36:12.901Z,26.50
2019-04-20T11:38:33.230Z,26.50
2019-04-20T11:41:03.893Z,26.80
2019-04-20T11:43:17.704Z,26.60
2019-04-20T11:45:40.579Z,27.40
2019-04-20T11:48:01.256Z,26.50
2019-04-20T11:50:21.972Z,26.50
2019-04-20T11:52:47.520Z,26.20
2019-04-20T11:55:10.598Z,26.60
2019-04-20T11:57:31.248Z,26.60
2019-04-20T11:59:53.131Z,26.40
2019-04-20T12:02:27.929Z,25.00
2019-04-20T12:04:52.004Z,25.70
2019-04-20T12:07:11.092Z,25.60
2019-04-20T12:09:31.523Z,25.90
2019-04-20T12:12:04.112Z,26.00
2019-04-20T12:14:16.702Z,25.70
2019-04-20T12:16:37.561Z,25.70
2019-04-20T12:18:58.110Z,26.30
2019-04-20T12:21:18.995Z,26.00
2019-04-20T12:23:40.348Z,25.60
2019-04-20T12:26:03.110Z,25.90
2019-04-20T12:28:23.742Z,25.70
2019-04-20T12:30:43.908Z,25.10
2019-04-20T12:33:05.607Z,24.70
2019-04-20T12:35:26.473Z,25.10
2019-04-20T12:37:47.342Z,24.30
2019-04-20T12:40:14.531Z,24.00
2019-04-20T12:42:34.874Z,24.50
2019-04-20T12:44:55.612Z,24.80
2019-04-20T12:47:17.391Z,24.70
2019-04-20T12:49:38.375Z,25.50
2019-04-20T12:52:01.616Z,24.70
2019-04-20T12:54:20.772Z,24.20
2019-04-20T12:56:42.435Z,26.40
2019-04-20T12:59:05.506Z,24.50
2019-04-20T13:01:25.857Z,25.40
2019-04-20T13:03:46.112Z,25.30
2019-04-20T13:06:07.878Z,24.90
2019-04-20T13:08:36.246Z,24.50
2019-04-20T13:10:55.909Z,25.30
2019-04-20T13:13:28.186Z,24.90
2019-04-20T13:15:50.208Z,24.50
2019-04-20T13:18:11.975Z,25.00
2019-04-20T13:20:32.452Z,25.40
2019-04-20T13:22:52.950Z,25.70
2019-04-20T13:25:14.911Z,25.30
2019-04-20T13:27:35.124Z,24.80
2019-04-20T13:29:58.544Z,25.20
2019-04-20T13:32:20.104Z,24.50
2019-04-20T13:34:42.343Z,24.70
2019-04-20T13:37:04.174Z,23.80
2019-04-20T13:39:26.861Z,24.40
2019-04-20T13:42:02.148Z,24.10
2019-04-20T13:44:11.974Z,23.50
2019-04-20T13:46:33.332Z,24.00
2019-04-20T13:48:53.631Z,24.50
2019-04-20T13:51:14.723Z,24.80
2019-04-20T13:53:35.057Z,23.40
2019-04-20T13:55:56.074Z,23.60
2019-04-20T13:58:35.974Z,24.10
2019-04-20T14:01:06.125Z,24.10
2019-04-20T14:03:29.964Z,24.30
2019-04-20T14:05:50.847Z,24.10
2019-04-20T14:08:11.939Z,23.90
2019-04-20T14:10:33.394Z,24.30
2019-04-20T14:13:01.683Z,24.00
2019-04-20T14:15:15.382Z,23.10
2019-04-20T14:17:37.116Z,23.10
2019-04-20T14:19:59.347Z,23.70
2019-04-20T14:22:20.891Z,23.90
2019-04-20T14:24:42.605Z,23.60
2019-04-20T14:27:03.309Z,23.60
2019-04-20T14:29:25.087Z,23.70
2019-04-20T14:31:45.983Z,23.20
2019-04-20T14:34:06.839Z,24.20
2019-04-20T14:36:28.710Z,24.00
2019-04-20T14:38:49.909Z,23.50
2019-04-20T14:41:16.371Z,23.00
2019-04-20T14:43:38.113Z,23.20
2019-04-20T14:45:58.919Z,23.40
2019-04-20T14:48:18.927Z,22.90
2019-04-20T14:50:41.288Z,23.50
2019-04-20T14:53:04.973Z,23.10
2019-04-20T14:55:25.892Z,23.20
2019-04-20T14:57:47.650Z,24.40
2019-04-20T15:00:13.930Z,23.80
2019-04-20T15:02:38.403Z,24.00
2019-04-20T15:05:01.413Z,23.00
2019-04-20T15:07:26.607Z,22.90
2019-04-20T15:09:48.944Z,24.00
2019-04-20T15:12:10.727Z,24.40
2019-04-20T15:14:32.382Z,24.50
2019-04-20T15:16:53.330Z,23.80
2019-04-20T15:19:15.772Z,24.70
2019-04-20T15:21:47.443Z,24.20
2019-04-20T15:24:09.357Z,24.30
2019-04-20T15:26:30.875Z,24.40
2019-04-20T15:28:52.516Z,23.90
2019-04-20T15:31:20.322Z,24.30
2019-04-20T15:33:41.085Z,24.20
2019-04-20T15:36:02.220Z,24.10
2019-04-20T15:38:23.049Z,24.30
2019-04-20T15:40:44.805Z,24.60
2019-04-20T15:43:13.337Z,25.00
2019-04-20T15:45:33.546Z,24.90
2019-04-20T15:47:52.169Z,26.40
2019-04-20T15:50:13.852Z,26.60
2019-04-20T15:52:39.978Z,26.60
2019-04-20T15:55:01.859Z,27.40
2019-04-20T15:57:25.321Z,27.20
2019-04-20T15:59:44.482Z,27.10
2019-04-20T16:02:07.268Z,27.30
2019-04-20T16:04:45.412Z,27.50
2019-04-20T16:07:05.812Z,28.00
2019-04-20T16:09:28.970Z,27.80
2019-04-20T16:11:50.846Z,27.90
2019-04-20T16:14:10.996Z,28.10
2019-04-20T16:16:34.015Z,27.90
2019-04-20T16:18:54.915Z,28.00
2019-04-20T16:21:22.411Z,28.40
2019-04-20T16:23:43.545Z,28.40
2019-04-20T16:26:11.153Z,28.70
2019-04-20T16:28:33.105Z,28.70
2019-04-20T16:30:55.808Z,28.60
2019-04-20T16:33:16.517Z,29.20
2019-04-20T16:35:38.848Z,29.50
2019-04-20T16:38:00.148Z,29.70
2019-04-20T16:40:20.908Z,29.80
2019-04-20T16:42:45.455Z,29.90
2019-04-20T16:45:07.713Z,30.00
2019-04-20T16:47:28.581Z,30.40
2019-04-20T16:49:48.878Z,30.60
2019-04-20T16:52:10.574Z,30.70
2019-04-20T16:54:32.577Z,30.90
2019-04-20T16:56:52.972Z,31.00
2019-04-20T16:59:17.275Z,31.50
2019-04-20T17:01:37.174Z,31.10
2019-04-20T17:04:04.810Z,31.30
2019-04-20T17:06:20.521Z,31.30
2019-04-20T17:08:42.733Z,31.20
2019-04-20T17:11:05.682Z,31.30
2019-04-20T17:13:35.277Z,31.50
2019-04-20T17:15:49.950Z,31.60
2019-04-20T17:18:10.095Z,31.70
2019-04-20T17:20:30.715Z,32.00
2019-04-20T17:22:51.146Z,32.30
2019-04-20T17:25:12.305Z,32.70
2019-04-20T17:27:37.161Z,33.10
2019-04-20T17:30:21.617Z,33.10
2019-04-20T17:32:41.227Z,33.10
2019-04-20T17:35:18.087Z,33.60
2019-04-20T17:37:32.869Z,34.20
2019-04-20T17:40:11.154Z,34.10
2019-04-20T17:42:23.960Z,34.80
2019-04-20T17:44:47.292Z,34.70
2019-04-20T17:47:13.637Z,35.30
2019-04-20T17:49:32.823Z,35.40
2019-04-20T17:52:05.097Z,35.70
2019-04-20T17:54:14.311Z,36.50
2019-04-20T17:56:36.281Z,36.60
2019-04-20T17:58:58.541Z,36.30
2019-04-20T18:01:32.988Z,36.30
2019-04-20T18:04:11.368Z,36.80
2019-04-20T18:06:27.508Z,37.00
2019-04-20T18:08:48.371Z,37.20
2019-04-20T18:11:07.782Z,38.10
2019-04-20T18:13:27.533Z,39.00
2019-04-20T18:16:12.722Z,40.20
2019-04-20T18:18:39.832Z,40.20
2019-04-20T18:20:54.722Z,41.70
2019-04-20T18:23:16.384Z,41.20
2019-04-20T18:28:20.956Z,43.30
2019-04-20T18:30:39.009Z,44.10
2019-04-20T18:32:51.478Z,45.90
2019-04-20T18:35:22.935Z,47.00
2019-04-20T18:37:51.532Z,47.50
2019-04-20T18:40:11.331Z,48.00
2019-04-20T18:42:36.749Z,48.90
2019-04-20T18:45:08.924Z,50.30
2019-04-20T18:47:33.035Z,51.10
2019-04-20T18:49:49.494Z,50.80
2019-04-20T18:51:59.786Z,51.10
2019-04-20T18:54:24.285Z,51.80
2019-04-20T18:56:47.363Z,52.40
2019-04-20T18:59:05.203Z,52.60
2019-04-20T19:01:31.547Z,53.20
2019-04-20T19:03:48.720Z,53.30
2019-04-20T19:06:11.191Z,54.10
2019-04-20T19:08:39.114Z,54.20
2019-04-20T19:10:57.593Z,54.40
2019-04-20T19:13:22.362Z,54.70
2019-04-20T19:16:01.941Z,54.70
2019-04-20T19:18:25.220Z,55.00
2019-04-20T19:20:35.076Z,54.50
2019-04-20T19:22:55.906Z,54.70
2019-04-20T19:25:25.697Z,55.00
2019-04-20T19:27:48.414Z,55.30
2019-04-20T19:30:16.847Z,55.90
2019-04-20T19:32:39.466Z,56.60
2019-04-20T19:34:59.547Z,57.80
2019-04-20T19:37:15.743Z,58.00
2019-04-20T19:39:47.440Z,57.60
2019-04-20T19:42:08.155Z,57.70
2019-04-20T19:44:26.784Z,57.10
2019-04-20T19:47:03.839Z,57.30
2019-04-20T19:49:11.278Z,58.60
2019-04-20T19:51:43.031Z,58.10
2019-04-20T19:54:12.128Z,58.20
2019-04-20T19:56:26.106Z,59.10
2019-04-20T19:58:39.888Z,59.40
2019-04-20T20:00:55.567Z,60.20
2019-04-20T20:03:15.539Z,60.00
2019-04-20T20:05:40.907Z,60.50
2019-04-20T20:08:06.461Z,61.00
2019-04-20T20:10:29.345Z,62.00
2019-04-20T20:12:48.403Z,62.50
2019-04-20T20:15:15.796Z,63.60
2019-04-20T20:17:49.816Z,63.70
2019-04-20T20:20:14.390Z,63.40
2019-04-20T20:22:25.401Z,63.90
2019-04-20T20:24:36.865Z,64.00
2019-04-20T20:27:02.487Z,64.00
2019-04-20T20:29:28.483Z,64.70
2019-04-20T20:32:01.428Z,65.10
2019-04-20T20:34:14.562Z,64.50
2019-04-20T20:36:40.183Z,64.10
2019-04-20T20:38:52.520Z,64.30
2019-04-20T20:41:20.539Z,63.50
2019-04-20T20:43:51.200Z,63.20
2019-04-20T20:46:05.278Z,66.20
2019-04-20T20:48:36.532Z,66.20
2019-04-20T20:50:57.371Z,66.70
2019-04-20T20:53:14.283Z,67.60
2019-04-20T20:55:35.622Z,67.30
2019-04-20T20:58:01.070Z,67.10
2019-04-20T21:00:34.446Z,69.60
2019-04-20T21:02:44.822Z,70.10
2019-04-20T21:04:59.604Z,70.10
2019-04-20T21:07:20.646Z,70.50
2019-04-20T21:09:41.837Z,70.90
2019-04-20T21:12:12.116Z,71.40
2019-04-20T21:14:31.743Z,71.60
2019-04-20T21:17:00.410Z,72.30
2019-04-20T21:19:24.435Z,73.60
2019-04-20T21:21:46.352Z,74.50
2019-04-20T21:24:03.885Z,74.80
2019-04-20T21:26:27.079Z,74.40
2019-04-20T21:28:43.874Z,74.80
2019-04-20T21:31:12.350Z,74.70
2019-04-20T21:33:31.099Z,76.20
2019-04-20T21:35:53.199Z,76.10
2019-04-20T21:38:15.545Z,76.30
2019-04-20T21:40:39.959Z,76.40
2019-04-20T21:43:03.408Z,76.00
2019-04-20T21:45:25.336Z,77.30
2019-04-20T21:47:44.713Z,77.90
2019-04-20T21:50:26.689Z,78.20
2019-04-20T21:52:36.132Z,78.40
2019-04-20T21:54:52.062Z,79.20
2019-04-20T21:57:15.048Z,79.50
2019-04-20T21:59:42.558Z,80.70
2019-04-20T22:02:09.798Z,81.80
2019-04-20T22:04:22.959Z,82.10
2019-04-20T22:06:42.415Z,83.60
2019-04-20T22:09:09.076Z,83.80
2019-04-20T22:11:31.604Z,84.00
2019-04-20T22:13:53.358Z,82.70
2019-04-20T22:16:16.543Z,82.80
2019-04-20T22:18:48.180Z,84.70
2019-04-20T22:21:09.468Z,85.20
2019-04-20T22:23:36.637Z,85.30
2019-04-20T22:25:59.469Z,85.50
2019-04-20T22:28:08.698Z,86.30
2019-04-20T22:30:30.281Z,87.50
2019-04-20T22:32:53.694Z,87.20
2019-04-20T22:35:17.109Z,87.30
2019-04-20T22:37:42.858Z,87.70
2019-04-20T22:40:11.816Z,88.40
2019-04-20T22:42:37.902Z,88.70
2019-04-20T22:44:58.679Z,89.20
2019-04-20T22:47:22.646Z,89.60
2019-04-20T22:49:50.094Z,89.70
2019-04-20T22:52:18.433Z,90.30
2019-04-20T22:54:39.723Z,90.90
2019-04-20T22:56:58.562Z,91.20
2019-04-20T22:59:13.010Z,91.40
2019-04-20T23:01:37.565Z,91.10
2019-04-20T23:03:52.686Z,91.00
2019-04-20T23:06:14.327Z,90.60
2019-04-20T23:08:35.115Z,90.60
2019-04-20T23:10:55.763Z,91.10
2019-04-20T23:13:16.363Z,91.40
2019-04-20T23:15:36.894Z,91.90
2019-04-20T23:17:57.971Z,92.30
2019-04-20T23:20:25.289Z,92.60
2019-04-20T23:22:45.733Z,92.80
2019-04-20T23:25:05.149Z,92.90
2019-04-20T23:27:31.259Z,92.90
2019-04-20T23:29:49.193Z,93.00
2019-04-20T23:32:12.563Z,93.00
2019-04-20T23:34:34.197Z,93.00
2019-04-20T23:36:54.832Z,93.00
2019-04-20T23:39:16.907Z,93.40
2019-04-20T23:41:37.768Z,93.60
2019-04-20T23:44:04.793Z,93.80
2019-04-20T23:46:27.592Z,94.00
2019-04-20T23:48:48.158Z,94.10
2019-04-20T23:51:34.743Z,94.40
2019-04-20T23:53:43.852Z,94.50
2019-04-20T23:55:54.931Z,94.70
2019-04-20T23:58:19.494Z,95.00
